Parshall, CO (80468)

12:04 AM MDT on September 21, 2014 (GMT -0600)
Green Mountain Reservoir | Change Station
CLOSE
Current Station
Personal Weather Station
Location: Heeney, CO
Elevation: 7979 ft
Nearby Weather Stations

Elev 7979 ft 39.87 °N, 106.31 °W | Updated 54 seconds ago

Partly Cloudy
Partly Cloudy
56.3 °F
Feels Like 56.3 °F
N
5.4
Wind Variable Wind from SE
Gusts 9.8 mph

Today
High -- | Low -- °F
--% Chance of Precip.
Yesterday
High -- | Low -- °F
Precip. -- in
6:51 AM 7:03 PM
Waning Crescent, 8% visible
Pressure 30.38 in
Visibility 10.0 miles
Clouds Clear
Dew Point 44 °F
Humidity 62%
Rainfall 0.00 in
Snow Depth Not available.
UV 0 out of 12
Pollen 6.70 out of 12
Air Quality Not available.
Flu Activity Not available.
METAR K20V 210555Z AUTO 00000KT 10SM CLR 13/04 A3038 RMK AO2

More Conditions Fewer Conditions

Pressure 30.38 in
Visibility 10.0 miles
Clouds Clear
Dew Point 44 °F
Humidity 62%
Rainfall 0.00 in
Snow Depth Not available.
UV 0 out of 12
Pollen 6.70 out of 12
Air Quality Not available.
Flu Activity Not available.
METAR K20V 210555Z AUTO 00000KT 10SM CLR 13/04 A3038 RMK AO2

More Conditions Fewer Conditions

10-Day Weather Forecast

Almanac

Astronomy

Sep. 21, 2014 Rise Set
Actual Time 6:51 AM MDT 7:03 PM MDT
Civil Twilight 6:24 AM MDT 7:30 PM MDT
Nautical Twilight 5:52 AM MDT 8:01 PM MDT
Astronomical Twilight 5:20 AM MDT 8:34 PM MDT
Moon 4:27 AM MDT 5:40 PM MDT
Length of Visible Light 13h 05m
Length of Day
12h 11m
Tomorrow will be 2m 37s shorter.
Waning Crescent, 8% of the Moon is Illuminated
Today
Waning Crescent
Sep 24
New
Oct 1
First Quarter
Oct 8
Full
Oct 15
Last Quarter

Today's Extremes

State Highs State Lows

Community

WunderPhotos

Upload Photos

1,755,098 photos uploaded!

Nearby

Snow Depth

Station Depth Elevation
Upper San Juan 0 in 10130 ft
Lost Dog 0 in 9320 ft
Columbine Pass 0 in 9400 ft
Apishapa 0 in 10000 ft
Joe Wright 0 in 10120 ft

Earthquake Activity

City Distance Mag. Time & Date
No recent earthquake activity has been reported nearby.
Minimum magnitude displayed is 2.5.

Coastal Water Temperatures

Place Temperature
No Stations Reporting

Nearby Weather Stations